Time;durP1;ratioP1;P1;durP2;ratioP2;P2;SDS_P1;SDS_P2;PMS_P1;PMS_P2;Temp;Humidity;BMP_temperature;BMP_pressure;BME280_temperature;BME280_humidity;BME280_pressure;Samples;Min_cycle;Max_cycle;Signal;HPM_P1;HPM_P2
2021/04/16 00:02:00;;;;;;;4.53;2.83;;;;;;;5.17;74.58;100441.69;126312;1099;104271;-77
2021/04/16 00:04:29;;;;;;;5.37;3.07;;;;;;;5.15;73.88;100444.20;126210;1099;104140;-77
2021/04/16 00:06:58;;;;;;;4.25;2.80;;;;;;;5.14;74.87;100439.83;126254;1099;104274;-77
2021/04/16 00:09:27;;;;;;;3.73;3.03;;;;;;;5.13;74.27;100442.34;126291;1099;104169;-77
2021/04/16 00:11:56;;;;;;;5.50;3.37;;;;;;;5.12;74.22;100440.55;126191;1098;104146;-77
2021/04/16 00:14:25;;;;;;;4.80;3.10;;;;;;;5.10;74.57;100440.45;126181;1098;104267;-78
2021/04/16 00:16:53;;;;;;;4.67;2.73;;;;;;;5.08;74.42;100443.77;126283;1098;104144;-76
2021/04/16 00:19:22;;;;;;;4.33;2.97;;;;;;;5.06;74.19;100445.39;126314;1099;104146;-76
2021/04/16 00:21:51;;;;;;;3.60;2.80;;;;;;;5.07;73.99;100444.59;126233;1099;105195;-77
2021/04/16 00:24:20;;;;;;;5.73;3.07;;;;;;;5.06;74.48;100445.39;126255;1098;104277;-77
2021/04/16 00:26:49;;;;;;;4.70;2.90;;;;;;;5.08;74.94;100446.37;126200;1099;104143;-77
2021/04/16 00:29:18;;;;;;;6.37;3.23;;;;;;;5.07;74.56;100445.48;126240;1099;104140;-77
2021/04/16 00:31:56;;;;;;;4.87;3.10;;;;;;;5.10;74.87;100440.45;126286;1098;104177;-77
2021/04/16 00:34:26;;;;;;;4.50;3.10;;;;;;;5.16;74.46;100448.61;126330;1099;104222;-77
2021/04/16 00:36:56;;;;;;;4.77;3.00;;;;;;;5.21;74.22;100444.55;125272;1099;104379;-77
2021/04/16 00:39:25;;;;;;;6.23;3.40;;;;;;;5.22;74.52;100446.35;126276;1099;105221;-76
2021/04/16 00:41:54;;;;;;;4.23;3.07;;;;;;;5.25;74.77;100442.12;126268;1099;105296;-76
2021/04/16 00:44:23;;;;;;;5.83;3.60;;;;;;;5.27;74.09;100440.52;126284;1099;104153;-77
2021/04/16 00:46:57;;;;;;;5.23;3.00;;;;;;;5.27;74.83;100437.92;126221;1099;104306;-77
2021/04/16 00:49:30;;;;;;;6.65;3.47;;;;;;;5.25;73.87;100434.31;126256;1099;104169;-77
2021/04/16 00:52:02;;;;;;;4.07;2.97;;;;;;;5.25;74.19;100430.03;126299;1099;104149;-76
2021/04/16 00:54:35;;;;;;;5.23;2.90;;;;;;;5.25;74.68;100436.91;126276;1099;104151;-76
2021/04/16 00:57:06;;;;;;;6.70;3.20;;;;;;;5.24;74.42;100429.94;126221;1099;104142;-77
2021/04/16 00:59:39;;;;;;;5.03;3.10;;;;;;;5.20;74.15;100432.38;125386;1099;104675;-77
2021/04/16 01:02:08;;;;;;;4.60;3.10;;;;;;;5.19;74.14;100429.69;126214;1099;104929;-77
2021/04/16 01:04:37;;;;;;;5.63;3.40;;;;;;;5.16;74.30;100430.39;126274;1099;104142;-77
2021/04/16 01:07:09;;;;;;;3.67;2.90;;;;;;;5.16;74.48;100424.31;126235;1099;104133;-77
2021/04/16 01:09:38;;;;;;;5.83;3.47;;;;;;;5.15;74.38;100425.99;126304;1098;104267;-76
2021/04/16 01:12:11;;;;;;;4.43;3.27;;;;;;;5.19;74.56;100434.89;126294;1099;104268;-75
2021/04/16 01:14:42;;;;;;;4.93;3.00;;;;;;;5.17;74.34;100428.68;126280;1098;104149;-77
2021/04/16 01:17:13;;;;;;;6.33;3.20;;;;;;;5.15;74.21;100432.91;126297;1098;104150;-76
2021/04/16 01:19:48;;;;;;;5.90;3.07;;;;;;;5.15;74.17;100430.31;126265;1098;104284;-77
2021/04/16 01:22:26;;;;;;;5.37;3.30;;;;;;;5.12;74.12;100433.63;126261;1099;104146;-77
2021/04/16 01:24:58;;;;;;;4.13;2.70;;;;;;;5.12;74.31;100427.53;126279;1099;104304;-76
2021/04/16 01:27:28;;;;;;;4.50;3.00;;;;;;;5.13;74.31;100426.73;126177;1099;104185;-77
2021/04/16 01:30:06;;;;;;;6.07;2.90;;;;;;;5.11;74.19;100430.94;126325;1099;104140;-77
2021/04/16 01:32:35;;;;;;;3.70;2.53;;;;;;;5.08;74.50;100431.68;126280;1099;104156;-77
2021/04/16 01:35:08;;;;;;;3.87;2.60;;;;;;;5.06;73.98;100424.59;126247;1099;104153;-76
2021/04/16 01:37:37;;;;;;;3.20;2.57;;;;;;;5.04;74.79;100424.50;126225;1099;104147;-77
2021/04/16 01:40:09;;;;;;;5.60;2.77;;;;;;;5.04;74.17;100420.19;126256;1099;104178;-76
2021/04/16 01:42:38;;;;;;;3.97;2.40;;;;;;;5.04;74.25;100420.19;126299;1099;104143;-78
2021/04/16 01:45:14;;;;;;;3.93;2.80;;;;;;;5.05;74.28;100415.91;126190;1099;104274;-77
2021/04/16 01:47:43;;;;;;;3.13;2.67;;;;;;;5.04;74.14;100420.19;126227;1099;104155;-76
2021/04/16 01:50:12;;;;;;;3.20;2.60;;;;;;;5.02;74.63;100419.21;126297;1099;104274;-77
2021/04/16 01:52:41;;;;;;;3.07;2.47;;;;;;;5.04;73.99;100414.09;126222;1099;104168;-76
2021/04/16 01:55:11;;;;;;;3.50;2.40;;;;;;;5.01;74.51;100412.20;126274;1099;104563;-76
2021/04/16 01:57:40;;;;;;;3.57;2.33;;;;;;;5.00;74.36;100415.64;125795;1099;104226;-76
2021/04/16 02:00:12;;;;;;;4.05;2.50;;;;;;;5.01;74.53;100424.33;126284;1099;104153;-77
2021/04/16 02:02:41;;;;;;;2.60;2.17;;;;;;;4.99;74.29;100418.16;126313;1099;104198;-76
2021/04/16 02:05:12;;;;;;;2.63;2.20;;;;;;;4.98;74.16;100424.15;126223;1098;105251;-76
2021/04/16 02:07:40;;;;;;;2.20;2.00;;;;;;;4.94;74.06;100428.30;126255;1098;104232;-77
2021/04/16 02:10:12;;;;;;;3.20;2.27;;;;;;;4.92;73.94;100423.80;126293;1099;105313;-77
2021/04/16 02:12:41;;;;;;;2.23;2.03;;;;;;;4.91;74.55;100420.31;126291;1099;104157;-77
2021/04/16 02:15:11;;;;;;;2.87;2.07;;;;;;;4.91;73.92;100422.92;126303;1099;104275;-77
2021/04/16 02:17:40;;;;;;;2.47;2.10;;;;;;;4.90;74.15;100420.23;126207;1099;104159;-76
2021/04/16 02:20:12;;;;;;;2.33;2.13;;;;;;;4.89;74.81;100421.03;126307;1099;104163;-76
2021/04/16 02:22:42;;;;;;;3.07;2.60;;;;;;;4.85;74.16;100422.56;126307;1099;104143;-77
2021/04/16 02:25:12;;;;;;;3.13;2.60;;;;;;;4.83;74.05;100417.28;125398;1099;105085;-76
2021/04/16 02:27:41;;;;;;;2.80;2.33;;;;;;;4.82;74.09;100417.19;126205;1099;104149;-77
2021/04/16 02:30:15;;;;;;;2.53;2.20;;;;;;;4.80;74.42;100419.70;126272;1099;104268;-76
2021/04/16 02:32:44;;;;;;;3.33;2.60;;;;;;;4.78;74.39;100413.50;126291;1098;104156;-76
2021/04/16 02:35:14;;;;;;;4.13;2.67;;;;;;;4.79;74.32;100411.81;126237;1099;104163;-77
2021/04/16 02:37:43;;;;;;;3.80;2.60;;;;;;;4.80;74.15;100411.91;126253;1099;104214;-77
2021/04/16 02:40:16;;;;;;;5.83;2.97;;;;;;;4.80;74.54;100417.09;126236;1099;104146;-77
2021/04/16 02:42:45;;;;;;;4.23;2.90;;;;;;;4.81;74.42;100415.39;126219;1098;104203;-77
2021/04/16 02:45:16;;;;;;;6.13;2.70;;;;;;;4.81;74.59;100417.98;126207;1099;104350;-77
2021/04/16 02:47:44;;;;;;;3.17;2.80;;;;;;;4.81;74.07;100420.59;126146;1099;104277;-76
2021/04/16 02:50:17;;;;;;;4.50;2.83;;;;;;;4.80;74.32;100421.38;126115;1099;104149;-77
2021/04/16 02:52:46;;;;;;;4.57;2.90;;;;;;;4.79;74.22;100411.81;126108;1099;104168;-77
2021/04/16 02:55:16;;;;;;;2.90;2.60;;;;;;;4.77;74.58;100414.33;126119;1099;104277;-77
2021/04/16 02:57:46;;;;;;;3.43;2.90;;;;;;;4.75;74.17;100418.52;126073;1099;104280;-78
2021/04/16 03:00:21;;;;;;;5.30;3.00;;;;;;;4.74;74.64;100416.75;126076;1099;104182;-75
2021/04/16 03:02:50;;;;;;;6.07;3.20;;;;;;;4.72;74.31;100426.17;126189;1099;104140;-77
2021/04/16 03:05:20;;;;;;;5.10;3.23;;;;;;;4.69;74.55;100425.99;126233;1099;104299;-77
2021/04/16 03:07:50;;;;;;;5.20;3.47;;;;;;;4.67;74.69;100432.78;126238;1099;104146;-76
2021/04/16 03:10:21;;;;;;;4.20;3.20;;;;;;;4.66;74.62;100437.09;126226;1099;104155;-78
2021/04/16 03:12:49;;;;;;;4.37;3.20;;;;;;;4.69;74.25;100441.59;126185;1099;104175;-77
2021/04/16 03:15:19;;;;;;;4.10;3.10;;;;;;;4.70;74.55;100438.16;126292;1099;104278;-77
2021/04/16 03:17:48;;;;;;;5.30;3.57;;;;;;;4.70;74.62;100440.77;126226;1099;104169;-77
2021/04/16 03:20:21;;;;;;;5.90;3.40;;;;;;;4.69;74.73;100446.79;126127;1099;104641;-77
2021/04/16 03:22:50;;;;;;;6.57;3.83;;;;;;;4.71;74.08;100452.08;126190;1099;104143;-77
2021/04/16 03:25:20;;;;;;;6.80;3.93;;;;;;;4.72;74.41;100457.37;125222;1099;104222;-78
2021/04/16 03:27:49;;;;;;;5.07;3.73;;;;;;;4.75;74.10;100461.83;126166;1099;104230;-77
2021/04/16 03:30:23;;;;;;;8.10;3.80;;;;;;;4.78;74.31;100467.20;126208;1099;104218;-77
2021/04/16 03:32:53;;;;;;;9.20;3.80;;;;;;;4.82;74.73;100467.47;126212;1099;104165;-76
2021/04/16 03:35:23;;;;;;;6.57;4.23;;;;;;;4.88;74.23;100472.14;126276;1099;104143;-77
2021/04/16 03:37:52;;;;;;;8.80;4.40;;;;;;;4.90;74.30;100475.72;126269;1099;104291;-76
2021/04/16 03:40:25;;;;;;;8.80;4.57;;;;;;;4.93;74.09;100472.41;126193;1099;102055;-77
2021/04/16 03:42:53;;;;;;;7.47;4.33;;;;;;;4.95;73.72;100476.88;126230;1099;104286;-76
2021/04/16 03:45:23;;;;;;;7.60;4.63;;;;;;;4.96;74.43;100478.67;126233;1099;104275;-76
2021/04/16 03:47:52;;;;;;;9.93;5.10;;;;;;;4.98;74.12;100474.45;126186;1099;104267;-77
2021/04/16 03:50:25;;;;;;;9.77;5.50;;;;;;;5.05;74.17;100478.32;126161;1099;106744;-77
2021/04/16 03:52:54;;;;;;;10.13;5.50;;;;;;;5.10;74.18;100476.87;126092;1098;104274;-77
2021/04/16 03:55:26;;;;;;;7.87;4.90;;;;;;;5.14;74.00;100472.73;126007;1099;104274;-77
2021/04/16 03:57:55;;;;;;;9.07;5.53;;;;;;;5.19;73.88;100473.91;126006;1099;104155;-77
2021/04/16 04:00:29;;;;;;;10.07;5.93;;;;;;;5.24;73.96;100474.17;125236;1099;104146;-78
2021/04/16 04:02:59;;;;;;;10.53;5.57;;;;;;;5.30;73.95;100479.69;126163;1099;104176;-77
2021/04/16 04:05:28;;;;;;;9.70;5.47;;;;;;;5.36;74.15;100485.23;126085;1099;104162;-78
2021/04/16 04:07:57;;;;;;;13.57;6.00;;;;;;;5.44;74.29;100480.46;126270;1099;101929;-77
2021/04/16 04:10:28;;;;;;;10.13;5.70;;;;;;;5.51;74.13;100487.81;126159;1099;104236;-77
2021/04/16 04:12:57;;;;;;;10.00;5.77;;;;;;;5.55;73.92;100480.27;126290;1099;104198;-77
2021/04/16 04:15:26;;;;;;;11.53;6.13;;;;;;;5.63;74.19;100480.69;126238;1099;104641;-78
2021/04/16 04:17:55;;;;;;;10.87;5.87;;;;;;;5.72;74.03;100482.91;126246;1099;104204;-78
2021/04/16 04:20:30;;;;;;;10.97;6.17;;;;;;;5.82;73.74;100489.52;126150;1099;104157;-77
2021/04/16 04:23:01;;;;;;;12.93;6.07;;;;;;;5.89;73.77;100484.72;126122;1099;104273;-77
2021/04/16 04:25:32;;;;;;;10.43;5.80;;;;;;;5.96;73.89;100487.66;126240;1099;104165;-77
2021/04/16 04:28:03;;;;;;;10.60;6.00;;;;;;;6.04;74.10;100486.39;126090;1099;104156;-77
2021/04/16 04:30:35;;;;;;;12.77;6.53;;;;;;;6.08;73.92;100476.22;126235;1099;104293;-77
2021/04/16 04:33:04;;;;;;;13.30;6.63;;;;;;;6.17;73.77;100485.32;126253;1099;104163;-78
2021/04/16 04:35:34;;;;;;;9.80;5.50;;;;;;;6.23;73.62;100490.86;126204;1098;104669;-78
2021/04/16 04:38:04;;;;;;;10.27;6.07;;;;;;;6.26;73.90;100491.02;126238;1099;104159;-78
2021/04/16 04:40:37;;;;;;;12.05;5.80;;;;;;;6.29;73.47;100485.97;126211;1099;104184;-78
2021/04/16 04:43:09;;;;;;;11.77;6.20;;;;;;;6.28;73.34;100474.66;126170;1099;104178;-79
2021/04/16 04:45:38;;;;;;;12.27;5.97;;;;;;;6.31;73.44;100486.97;126047;1099;104601;-78
2021/04/16 04:48:08;;;;;;;12.13;5.80;;;;;;;6.31;73.18;100489.58;126083;1099;104588;-78
2021/04/16 04:50:37;;;;;;;14.13;6.07;;;;;;;6.35;73.59;100499.33;126238;1099;104169;-78
2021/04/16 04:53:06;;;;;;;17.40;6.53;;;;;;;6.41;73.36;100497.05;126134;1099;104150;-78
2021/04/16 04:55:35;;;;;;;13.20;6.10;;;;;;;6.47;73.55;100497.36;126019;1099;104153;-78
2021/04/16 04:58:03;;;;;;;11.10;6.30;;;;;;;6.55;73.23;100496.88;126087;1099;105345;-78
2021/04/16 05:00:32;;;;;;;12.20;6.15;;;;;;;6.62;73.29;100496.36;125319;1099;105057;-78
2021/04/16 05:03:01;;;;;;;10.37;6.20;;;;;;;6.70;73.18;100496.75;126066;1099;104201;-78
2021/04/16 05:05:30;;;;;;;11.33;6.10;;;;;;;6.76;73.32;100499.67;126141;1099;104331;-78
2021/04/16 05:07:58;;;;;;;12.10;6.23;;;;;;;6.84;73.36;100501.87;126177;1099;104579;-77
2021/04/16 05:10:27;;;;;;;10.13;5.87;;;;;;;6.90;73.14;100495.16;126094;1099;104300;-78
2021/04/16 05:12:56;;;;;;;11.60;5.57;;;;;;;6.92;72.93;100497.03;126013;1098;104155;-77
2021/04/16 05:15:25;;;;;;;9.90;5.30;;;;;;;6.94;72.75;100491.89;126097;1098;104287;-77
2021/04/16 05:17:54;;;;;;;12.43;5.40;;;;;;;6.97;72.65;100486.83;126153;1099;104203;-78
2021/04/16 05:20:22;;;;;;;11.93;5.70;;;;;;;6.97;72.54;100490.33;126197;1099;104182;-77
2021/04/16 05:22:51;;;;;;;8.10;4.80;;;;;;;7.01;72.61;100483.53;126118;1099;104315;-78
2021/04/16 05:25:20;;;;;;;9.17;4.60;;;;;;;7.01;72.53;100486.15;125965;1099;104175;-77
2021/04/16 05:27:49;;;;;;;10.60;4.93;;;;;;;7.08;72.86;100482.16;125157;1098;104160;-76
2021/04/16 05:30:19;;;;;;;9.13;5.20;;;;;;;7.05;72.58;100477.66;125831;1098;104640;-76
2021/04/16 05:32:48;;;;;;;8.60;4.70;;;;;;;7.09;72.13;100479.62;125786;1099;104618;-76
2021/04/16 05:35:17;;;;;;;8.77;4.83;;;;;;;7.12;72.22;100481.45;125744;1099;104472;-77
2021/04/16 05:37:46;;;;;;;8.37;4.00;;;;;;;7.12;72.02;100484.98;125705;1099;104384;-77
2021/04/16 05:40:16;;;;;;;6.30;4.33;;;;;;;7.17;72.47;100490.44;125834;1099;104175;-77
2021/04/16 05:42:46;;;;;;;7.63;4.07;;;;;;;7.30;72.47;100481.48;125530;1099;104245;-76
2021/04/16 05:45:19;;;;;;;6.43;4.40;;;;;;;7.45;72.34;100483.91;125732;1099;104338;-76
2021/04/16 05:47:48;;;;;;;9.77;4.13;;;;;;;7.55;72.24;100479.20;125839;1099;104296;-76
2021/04/16 05:50:19;;;;;;;8.33;3.70;;;;;;;7.51;72.10;100469.46;125753;1099;104284;-76
2021/04/16 05:52:48;;;;;;;8.20;3.57;;;;;;;7.48;71.74;100478.84;125781;1099;104211;-76
2021/04/16 05:55:17;;;;;;;5.83;3.53;;;;;;;7.41;71.59;100482.88;125138;1099;104297;-76
2021/04/16 05:57:46;;;;;;;6.80;3.57;;;;;;;7.35;71.69;100478.28;125851;1099;104146;-76
2021/04/16 06:00:16;;;;;;;8.50;3.60;;;;;;;7.36;71.87;100489.61;125681;1099;104265;-76
2021/04/16 06:02:45;;;;;;;8.10;3.50;;;;;;;7.37;71.65;100479.24;125700;1099;105582;-76
2021/04/16 06:05:18;;;;;;;5.55;3.20;;;;;;;7.37;71.34;100480.97;125880;1099;104175;-77
2021/04/16 06:07:49;;;;;;;7.30;3.33;;;;;;;7.37;71.04;100489.69;125581;1099;104300;-76
2021/04/16 06:10:20;;;;;;;3.60;2.90;;;;;;;7.37;71.45;100479.24;125798;1099;104306;-76
2021/04/16 06:12:49;;;;;;;5.50;3.27;;;;;;;7.42;71.31;100483.77;125836;1099;104348;-76
2021/04/16 06:15:21;;;;;;;8.50;3.30;;;;;;;7.50;71.44;100472.88;125788;1099;104230;-77
2021/04/16 06:17:50;;;;;;;6.63;3.47;;;;;;;7.67;71.27;100478.91;125676;1099;104172;-78
2021/04/16 06:20:22;;;;;;;5.30;3.50;;;;;;;7.79;71.59;100481.20;125733;1099;104242;-77
2021/04/16 06:22:54;;;;;;;6.93;3.90;;;;;;;7.96;71.19;100483.69;125641;1099;104165;-77
2021/04/16 06:25:27;;;;;;;7.70;3.93;;;;;;;8.06;71.23;100481.56;125731;1099;104208;-77
2021/04/16 06:28:00;;;;;;;6.75;3.85;;;;;;;8.20;71.21;100476.96;125829;1099;104169;-76
2021/04/16 06:30:30;;;;;;;7.33;3.73;;;;;;;8.35;71.03;100488.92;125700;1099;104150;-76
2021/04/16 06:33:05;;;;;;;6.73;3.30;;;;;;;8.47;70.87;100492.11;125719;1099;104375;-76
2021/04/16 06:35:35;;;;;;;8.57;4.23;;;;;;;8.57;71.29;100496.02;125768;1098;104163;-76
2021/04/16 06:38:05;;;;;;;8.93;4.13;;;;;;;8.64;70.86;100500.70;125625;1098;104312;-76
2021/04/16 06:40:36;;;;;;;7.63;4.03;;;;;;;8.60;70.19;100504.00;125664;1099;104213;-76
2021/04/16 06:43:06;;;;;;;7.37;4.23;;;;;;;8.54;70.52;100501.11;125025;1098;104184;-77
2021/04/16 06:45:38;;;;;;;9.10;4.30;;;;;;;8.63;70.18;100497.20;125891;1099;104157;-76
2021/04/16 06:48:12;;;;;;;9.47;3.93;;;;;;;8.77;70.63;100502.11;125163;1099;104226;-76
2021/04/16 06:50:46;;;;;;;10.00;3.70;;;;;;;8.88;70.19;100503.49;125747;1098;104165;-76
2021/04/16 06:53:23;;;;;;;7.47;4.63;;;;;;;8.84;69.88;100512.03;125837;1099;104303;-77
2021/04/16 06:55:57;;;;;;;9.30;4.00;;;;;;;8.78;69.16;100511.77;125772;1099;104162;-77
2021/04/16 06:58:31;;;;;;;10.00;4.53;;;;;;;8.80;69.88;100508.39;125112;1099;104340;-77
2021/04/16 07:01:10;;;;;;;6.63;4.10;;;;;;;8.88;69.10;100503.49;125874;1098;104166;-76
2021/04/16 07:03:44;;;;;;;6.60;4.40;;;;;;;8.92;69.56;100504.50;125852;1099;104284;-77
2021/04/16 07:06:18;;;;;;;;;;;;;;;8.96;68.58;100496.84;125770;1099;104156;-76
2021/04/16 07:08:55;;;;;;;7.23;4.10;;;;;;;9.08;69.06;100504.30;125906;1099;104315;-76
2021/04/16 07:11:28;;;;;;;10.70;4.80;;;;;;;9.11;68.78;100496.58;125955;1099;104354;-77
2021/04/16 07:13:59;;;;;;;7.50;4.17;;;;;;;9.15;68.76;100497.62;125896;1099;104167;-77
2021/04/16 07:16:30;;;;;;;7.57;3.93;;;;;;;9.07;68.60;100504.23;125870;1099;104300;-77
2021/04/16 07:19:13;;;;;;;11.00;5.30;;;;;;;9.07;68.65;100501.62;125102;1099;105086;-78
2021/04/16 07:21:43;;;;;;;12.53;5.43;;;;;;;9.08;69.33;100501.68;125124;1099;104217;-79
2021/04/16 07:24:16;;;;;;;10.03;5.00;;;;;;;9.08;68.73;100500.80;125422;1099;105515;-78
2021/04/16 07:26:50;;;;;;;12.20;6.07;;;;;;;9.11;68.41;100501.81;125126;1099;104131;-79
2021/04/16 07:29:40;;;;;;;7.60;4.67;;;;;;;9.11;68.61;100496.58;125844;1099;104213;-76
2021/04/16 07:32:21;;;;;;;7.27;4.10;;;;;;;9.15;68.17;100501.13;125943;1099;104271;-77
2021/04/16 07:34:51;;;;;;;10.23;4.57;;;;;;;9.18;68.16;100502.98;125782;1099;104133;-76
2021/04/16 07:37:25;;;;;;;9.30;4.50;;;;;;;9.16;68.13;100504.63;125866;1099;104342;-79
2021/04/16 07:40:07;;;;;;;8.07;4.37;;;;;;;9.15;68.10;100498.50;125031;1099;104155;-78
2021/04/16 07:42:55;;;;;;;8.80;3.93;;;;;;;9.24;68.09;100498.00;125673;1099;104290;-78
2021/04/16 07:45:42;;;;;;;10.80;4.67;;;;;;;9.31;67.55;100505.25;125484;1099;104354;-78
2021/04/16 07:48:21;;;;;;;7.03;4.07;;;;;;;9.30;68.30;100499.95;125622;1099;104229;-79
2021/04/16 07:50:52;;;;;;;8.47;4.90;;;;;;;9.33;68.19;100507.94;127219;1099;101582;-79
2021/04/16 07:53:37;;;;;;;8.40;4.10;;;;;;;9.44;67.96;100500.52;125675;1098;104299;-79
2021/04/16 07:56:22;;;;;;;12.13;4.55;;;;;;;9.55;67.56;100504.45;125559;1099;118622;-79
2021/04/16 07:59:04;;;;;;;7.20;4.03;;;;;;;9.70;67.52;100496.31;125680;1099;104169;-78
2021/04/16 08:01:37;;;;;;;9.30;4.20;;;;;;;9.87;67.93;100495.23;125721;1099;104236;-77
2021/04/16 08:04:11;;;;;;;13.27;5.47;;;;;;;10.11;67.91;100489.13;125077;1099;104307;-78
2021/04/16 08:06:41;;;;;;;;;;;;;;;10.23;66.96;100494.83;125762;1099;104149;-77
2021/04/16 08:09:14;;;;;;;9.30;4.40;;;;;;;10.35;67.05;100489.19;125923;1098;104389;-77
2021/04/16 08:11:43;;;;;;;7.80;4.50;;;;;;;10.45;67.13;100492.14;125777;1099;104268;-75
2021/04/16 08:14:22;;;;;;;7.73;4.03;;;;;;;10.56;67.30;100494.29;125772;1099;104147;-76
2021/04/16 08:16:57;;;;;;;7.67;4.30;;;;;;;10.69;66.71;100487.77;125757;1099;104390;-76
2021/04/16 08:19:30;;;;;;;9.53;5.20;;;;;;;10.83;66.92;100480.38;125723;1099;104332;-76
2021/04/16 08:22:03;;;;;;;6.50;4.20;;;;;;;11.06;66.90;100485.49;125829;1099;104249;-76
2021/04/16 08:24:45;;;;;;;10.83;4.43;;;;;;;11.14;66.40;100482.30;125113;1099;104200;-78
2021/04/16 08:27:32;;;;;;;6.87;4.40;;;;;;;11.26;66.46;100480.91;125780;1099;104207;-77
2021/04/16 08:30:10;;;;;;;7.90;4.07;;;;;;;11.48;66.20;100478.13;125732;1099;104214;-76
2021/04/16 08:32:45;;;;;;;9.87;4.47;;;;;;;11.61;66.14;100478.48;125751;1099;104242;-77
2021/04/16 08:35:19;;;;;;;11.63;4.60;;;;;;;11.66;65.80;100471.66;125751;1099;104163;-77
2021/04/16 08:37:52;;;;;;;11.63;4.60;;;;;;;11.71;65.69;100464.80;125905;1099;104169;-76
2021/04/16 08:40:27;;;;;;;9.47;4.40;;;;;;;11.82;65.35;100467.75;125952;1099;104173;-76
2021/04/16 08:42:58;;;;;;;10.37;4.57;;;;;;;12.07;65.45;100472.03;125188;1099;104171;-76
2021/04/16 08:45:32;;;;;;;10.77;4.40;;;;;;;12.33;65.45;100475.41;125900;1099;104139;-76
2021/04/16 08:48:02;;;;;;;;;;;;;;;12.30;63.67;100471.81;125864;1099;104307;-77
2021/04/16 08:50:37;;;;;;;7.90;4.10;;;;;;;12.08;63.80;100479.08;125886;1099;105494;-79
2021/04/16 08:53:06;;;;;;;5.27;3.90;;;;;;;11.93;64.23;100479.51;125734;1099;104214;-77
2021/04/16 08:55:39;;;;;;;8.53;4.27;;;;;;;11.84;63.98;100477.48;125543;1099;104261;-77
2021/04/16 08:58:24;;;;;;;7.77;4.83;;;;;;;11.84;64.17;100479.20;125824;1099;104079;-78
2021/04/16 09:00:56;;;;;;;7.27;4.20;;;;;;;11.94;64.19;100480.42;125066;1099;104410;-78
2021/04/16 09:03:40;;;;;;;8.17;4.33;;;;;;;12.11;64.35;100481.80;125095;1099;104220;-77
2021/04/16 09:06:20;;;;;;;9.67;4.70;;;;;;;12.35;63.98;100476.33;125719;1099;104256;-78
2021/04/16 09:08:52;;;;;;;8.53;4.50;;;;;;;12.55;64.08;100474.25;125735;1099;104188;-77
2021/04/16 09:11:48;;;;;;;6.57;4.03;;;;;;;12.63;64.06;100473.58;125886;1099;104220;-78
2021/04/16 09:14:54;;;;;;;6.43;3.70;;;;;;;12.58;63.38;100481.36;125685;1098;104179;-78
2021/04/16 09:17:58;;;;;;;6.17;3.87;;;;;;;12.39;63.37;100487.86;125308;1098;104274;-76
2021/04/16 09:20:48;;;;;;;6.77;4.40;;;;;;;12.18;62.93;100478.48;125340;1099;104175;-74
2021/04/16 09:23:40;;;;;;;9.47;4.20;;;;;;;12.07;62.91;100487.81;125932;1099;104210;-75
2021/04/16 09:26:10;;;;;;;6.93;3.97;;;;;;;12.06;62.74;100483.42;125788;1099;104408;-74
2021/04/16 09:28:55;;;;;;;11.40;5.23;;;;;;;12.11;62.63;100486.19;125945;1099;104165;-74
2021/04/16 09:31:49;;;;;;;10.43;4.30;;;;;;;12.16;62.77;100485.45;125893;1099;104188;-74
2021/04/16 09:34:22;;;;;;;7.78;4.53;;;;;;;12.26;62.60;100481.33;125899;1098;104172;-74
2021/04/16 09:37:12;;;;;;;12.07;4.93;;;;;;;12.33;62.58;100485.05;125829;1099;104185;-74
2021/04/16 09:39:57;;;;;;;6.57;4.30;;;;;;;12.32;61.75;100492.03;125898;1099;104277;-76
2021/04/16 09:42:36;;;;;;;7.03;3.90;;;;;;;12.27;61.58;100490.14;125996;1099;104383;-75
2021/04/16 09:45:12;;;;;;;6.63;4.03;;;;;;;12.13;61.89;100493.25;125962;1098;104303;-75
2021/04/16 09:47:51;;;;;;;9.70;5.17;;;;;;;12.13;61.74;100495.00;125750;1099;104223;-75
2021/04/16 09:50:35;;;;;;;7.77;4.63;;;;;;;12.22;61.60;100490.89;125774;1099;104130;-76
2021/04/16 09:53:20;;;;;;;10.27;4.70;;;;;;;12.32;61.65;100484.14;125882;1099;104139;-77
2021/04/16 09:56:11;;;;;;;8.37;4.60;;;;;;;12.41;61.25;100487.03;125064;1099;104924;-75
2021/04/16 09:59:04;;;;;;;9.73;4.00;;;;;;;12.47;61.23;100491.59;125649;1099;108917;-75
2021/04/16 10:01:34;;;;;;;10.37;4.30;;;;;;;12.52;61.26;100492.59;125812;1099;104316;-76
2021/04/16 10:04:06;;;;;;;6.13;3.83;;;;;;;12.61;60.85;100489.34;125828;1099;104271;-75
2021/04/16 10:06:40;;;;;;;6.70;4.03;;;;;;;12.70;60.79;100488.67;125658;1099;104213;-75
2021/04/16 10:09:27;;;;;;;6.37;3.83;;;;;;;12.67;60.41;100489.50;125591;1099;118216;-76
2021/04/16 10:12:16;;;;;;;5.37;3.90;;;;;;;12.72;60.77;100494.89;125464;1099;104233;-76
2021/04/16 10:14:45;;;;;;;8.07;4.33;;;;;;;12.65;60.70;100490.30;125576;1099;104459;-76
2021/04/16 10:17:21;;;;;;;8.03;4.30;;;;;;;12.66;60.43;100494.73;125605;1099;104159;-75
2021/04/16 10:19:53;;;;;;;6.00;4.00;;;;;;;12.78;60.04;100487.16;125585;1098;104134;-75
2021/04/16 10:22:44;;;;;;;7.58;4.17;;;;;;;12.86;60.17;100484.73;124878;1102;104284;-76
2021/04/16 12:38:33;;;;;;;7.73;3.10;;;;;;;12.26;52.63;100468.18;124949;1099;104224;-77
2021/04/16 12:41:04;;;;;;;7.20;3.53;;;;;;;12.21;52.59;100478.56;125035;1099;104172;-76
2021/04/16 12:43:39;;;;;;;6.83;3.40;;;;;;;12.14;52.94;100475.72;125055;1099;104301;-78
2021/04/16 12:46:11;;;;;;;10.47;3.40;;;;;;;12.07;52.86;100473.78;125178;1099;104153;-78
2021/04/16 12:48:42;;;;;;;6.57;3.30;;;;;;;11.98;52.84;100470.04;125104;1102;104230;-77
2021/04/16 12:51:11;;;;;;;7.80;3.77;;;;;;;11.91;52.69;100461.89;124952;1099;104341;-77
2021/04/16 12:53:41;;;;;;;5.40;3.20;;;;;;;11.83;52.72;100469.55;125031;1099;104171;-77
2021/04/16 12:56:13;;;;;;;11.50;4.20;;;;;;;11.74;52.68;100477.16;125066;1099;104296;-76
2021/04/16 12:58:44;;;;;;;9.53;3.10;;;;;;;11.65;52.44;100470.75;125070;1102;104204;-76
2021/04/16 13:01:21;;;;;;;9.17;3.30;;;;;;;11.63;52.30;100477.70;125181;1099;104336;-77
2021/04/16 13:03:50;;;;;;;4.67;2.80;;;;;;;11.60;52.29;100477.61;125864;1099;104159;-76
2021/04/16 13:06:27;;;;;;;8.67;3.53;;;;;;;11.68;52.61;100475.22;125923;1099;104242;-77
2021/04/16 13:08:56;;;;;;;6.63;3.40;;;;;;;11.65;52.32;100475.13;125807;1099;104175;-76
2021/04/16 13:11:27;;;;;;;5.73;3.20;;;;;;;11.55;52.31;100468.70;125783;1099;104207;-77
2021/04/16 13:13:59;;;;;;;5.20;3.20;;;;;;;11.52;51.95;100473.86;125905;1099;104249;-76
2021/04/16 13:16:28;;;;;;;8.17;3.50;;;;;;;11.46;51.85;100477.17;125912;1097;104220;-76
2021/04/16 13:19:00;;;;;;;7.57;3.07;;;;;;;11.39;52.04;100469.95;126075;1099;104249;-77
2021/04/16 13:21:33;;;;;;;10.27;3.60;;;;;;;11.34;51.83;100492.54;125848;1099;104245;-77
2021/04/16 13:24:06;;;;;;;9.87;4.13;;;;;;;11.28;52.01;100487.09;126019;1099;104564;-77
2021/04/16 13:26:35;;;;;;;9.30;3.53;;;;;;;11.24;51.92;100498.36;125869;1099;104175;-77
2021/04/16 13:29:05;;;;;;;6.85;3.65;;;;;;;11.26;51.99;100488.78;125870;1099;105638;-78
2021/04/16 13:31:38;;;;;;;8.47;3.63;;;;;;;11.28;51.96;100493.25;125788;1099;104220;-78
2021/04/16 13:34:22;;;;;;;7.97;3.90;;;;;;;11.32;52.27;100495.12;125699;1099;104331;-77
2021/04/16 13:36:53;;;;;;;;;;;;;;;11.31;51.61;100500.32;125989;1099;104197;-76
2021/04/16 13:39:23;;;;;;;7.70;3.50;;;;;;;11.27;51.69;100495.83;125964;1099;104217;-76
2021/04/16 13:41:55;;;;;;;8.23;3.60;;;;;;;11.28;52.20;100498.51;125932;1099;104338;-76
2021/04/16 13:44:26;;;;;;;9.40;4.17;;;;;;;11.24;51.89;100493.98;125933;1099;104195;-77
2021/04/16 13:47:01;;;;;;;9.17;4.43;;;;;;;11.18;51.80;100499.03;125868;1099;104165;-77
2021/04/16 13:49:35;;;;;;;6.93;4.20;;;;;;;11.14;51.85;100492.80;125903;1099;104195;-77
2021/04/16 13:52:08;;;;;;;7.93;3.80;;;;;;;11.08;51.97;100497.84;125822;1099;104271;-77
2021/04/16 13:54:38;;;;;;;9.73;4.10;;;;;;;11.03;51.71;100493.27;125906;1099;104258;-76